Time;durP1;ratioP1;P1;durP2;ratioP2;P2;SDS_P1;SDS_P2;PMS_P1;PMS_P2;Temp;Humidity;BMP_temperature;BMP_pressure;BME280_temperature;BME280_humidity;BME280_pressure;Samples;Min_cycle;Max_cycle;Signal;HPM_P1;HPM_P2
2021/08/06 00:00:14;;;;;;;7.80;2.05;;;23.20;96.70;;;;;;4867449;29;20049;-70
2021/08/06 00:02:44;;;;;;;5.65;1.73;;;23.20;96.70;;;;;;4888163;29;20048;-69
2021/08/06 00:05:16;;;;;;;4.88;1.95;;;23.20;96.70;;;;;;4921969;29;20048;-69
2021/08/06 00:07:45;;;;;;;10.82;2.08;;;23.10;96.70;;;;;;4905110;29;20447;-69
2021/08/06 00:10:21;;;;;;;7.78;2.25;;;23.10;96.70;;;;;;4938490;28;20139;-70
2021/08/06 00:13:01;;;;;;;6.22;2.10;;;23.00;96.70;;;;;;4938844;28;20158;-72
2021/08/06 00:15:42;;;;;;;9.75;2.10;;;23.00;96.70;;;;;;4907155;29;20051;-72
2021/08/06 00:18:25;;;;;;;8.43;2.30;;;23.00;96.70;;;;;;4910708;29;20126;-73
2021/08/06 00:21:00;;;;;;;9.30;2.15;;;23.00;96.70;;;;;;4917910;29;20525;-72
2021/08/06 00:23:29;;;;;;;9.50;2.30;;;23.00;96.70;;;;;;4907753;29;20048;-72
2021/08/06 00:25:57;;;;;;;5.88;2.05;;;22.90;96.70;;;;;;4916584;28;20053;-73
2021/08/06 00:28:25;;;;;;;6.63;2.20;;;23.00;96.70;;;;;;4937961;28;20628;-72
2021/08/06 00:30:54;;;;;;;10.68;2.67;;;23.00;96.70;;;;;;4907038;29;20455;-72
2021/08/06 00:33:22;;;;;;;7.50;1.73;;;23.00;96.70;;;;;;4906256;29;20529;-72
2021/08/06 00:36:04;;;;;;;7.30;2.13;;;23.00;96.70;;;;;;4934770;28;20146;-72
2021/08/06 00:38:34;;;;;;;8.98;2.15;;;22.90;96.70;;;;;;4907895;29;20044;-72
2021/08/06 00:41:04;;;;;;;8.63;2.72;;;23.00;96.70;;;;;;4935332;28;20052;-72
2021/08/06 00:43:34;;;;;;;10.15;2.25;;;23.00;96.70;;;;;;4921554;29;20063;-72
2021/08/06 00:46:08;;;;;;;8.68;2.35;;;22.90;96.70;;;;;;4903572;29;20072;-72
2021/08/06 00:48:44;;;;;;;9.20;2.50;;;22.90;96.70;;;;;;4922757;29;20040;-73
2021/08/06 00:51:27;;;;;;;14.60;2.63;;;22.90;96.70;;;;;;4921944;28;20581;-72
2021/08/06 00:54:07;;;;;;;8.00;2.53;;;23.00;96.70;;;;;;4922399;28;20044;-71
2021/08/06 00:56:48;;;;;;;9.25;2.35;;;22.90;96.70;;;;;;4906133;29;20048;-71
2021/08/06 00:59:18;;;;;;;6.38;1.83;;;23.00;96.70;;;;;;4906876;29;20040;-71
2021/08/06 01:01:52;;;;;;;8.77;2.47;;;22.90;96.70;;;;;;4937547;28;20044;-69
2021/08/06 01:04:34;;;;;;;4.82;1.63;;;23.00;96.70;;;;;;4907989;29;20394;-68
2021/08/06 01:07:07;;;;;;;7.87;2.57;;;22.90;96.70;;;;;;4909785;29;20297;-68
2021/08/06 01:09:44;;;;;;;8.52;2.28;;;22.90;96.70;;;;;;4924541;28;20070;-69
2021/08/06 01:12:20;;;;;;;9.05;2.63;;;22.90;96.70;;;;;;4920278;29;20053;-70
2021/08/06 01:14:51;;;;;;;10.05;2.38;;;22.70;96.70;;;;;;4937483;28;20056;-69
2021/08/06 01:17:23;;;;;;;8.57;2.50;;;22.70;96.70;;;;;;4921827;29;20079;-69
2021/08/06 01:20:01;;;;;;;6.13;2.20;;;22.70;96.70;;;;;;4937979;28;20406;-70
2021/08/06 01:22:41;;;;;;;8.02;2.55;;;22.60;96.70;;;;;;4910177;29;20577;-70
2021/08/06 01:25:39;;;;;;;8.55;2.22;;;22.60;96.70;;;;;;4920458;29;20051;-69
2021/08/06 01:28:13;;;;;;;9.50;2.50;;;22.50;96.70;;;;;;4905173;29;20533;-69
2021/08/06 01:30:44;;;;;;;10.30;2.88;;;22.50;96.70;;;;;;4941916;28;20132;-69
2021/08/06 01:33:16;;;;;;;7.80;2.40;;;22.50;96.70;;;;;;4907453;29;20040;-69
2021/08/06 01:35:47;;;;;;;6.78;1.90;;;22.40;96.70;;;;;;4910454;29;20040;-70
2021/08/06 01:38:18;;;;;;;9.90;2.55;;;22.50;96.70;;;;;;4906024;29;20375;-69
2021/08/06 01:41:06;;;;;;;10.13;2.50;;;22.40;96.70;;;;;;4908835;29;20057;-69
2021/08/06 01:43:46;;;;;;;9.88;2.08;;;22.50;96.70;;;;;;4936444;28;20080;-69
2021/08/06 01:46:21;;;;;;;8.05;2.42;;;22.30;96.70;;;;;;4890529;29;20052;-69
2021/08/06 01:48:56;;;;;;;10.93;2.58;;;22.30;96.70;;;;;;4923677;29;20044;-69
2021/08/06 01:51:26;;;;;;;9.07;2.28;;;22.30;96.70;;;;;;4923684;29;20450;-69
2021/08/06 01:53:56;;;;;;;7.57;2.28;;;22.20;96.70;;;;;;4938879;28;20078;-70
2021/08/06 01:56:27;;;;;;;8.75;2.38;;;22.30;96.70;;;;;;4913286;28;20411;-69
2021/08/06 01:58:59;;;;;;;9.10;2.50;;;22.30;96.70;;;;;;4922464;29;20055;-70
2021/08/06 02:05:06;;;;;;;6.78;2.20;;;22.30;96.70;;;;;;4920960;28;20051;-69
2021/08/06 02:08:00;;;;;;;7.50;2.35;;;22.30;96.70;;;;;;4938487;28;20079;-69
2021/08/06 02:10:29;;;;;;;8.18;2.42;;;22.30;96.70;;;;;;4935708;28;20079;-69
2021/08/06 02:13:04;;;;;;;10.13;2.40;;;22.30;96.70;;;;;;4892645;29;20091;-69
2021/08/06 02:15:36;;;;;;;11.00;2.25;;;22.30;96.70;;;;;;4908097;29;20052;-69
2021/08/06 02:18:07;;;;;;;9.48;2.45;;;22.30;96.70;;;;;;4908799;29;20506;-69
2021/08/06 02:20:58;;;;;;;6.18;2.22;;;22.20;96.70;;;;;;4906492;29;20610;-69
2021/08/06 02:23:31;;;;;;;;;;;22.30;96.70;;;;;;4909266;29;20506;-69
2021/08/06 02:26:01;;;;;;;10.32;2.70;;;22.30;96.70;;;;;;4892138;29;20385;-69
2021/08/06 02:28:36;;;;;;;7.95;2.28;;;22.30;96.70;;;;;;4908026;29;20502;-69
2021/08/06 02:31:08;;;;;;;7.90;2.17;;;22.30;96.70;;;;;;4905266;29;20044;-68
2021/08/06 02:33:38;;;;;;;8.50;2.53;;;22.30;96.70;;;;;;4909656;29;20047;-69
2021/08/06 02:36:06;;;;;;;8.25;2.63;;;22.30;96.70;;;;;;4905625;29;20499;-69
2021/08/06 02:42:00;;;;;;;5.30;2.13;;;22.30;96.70;;;;;;4921960;29;20048;-69
2021/08/06 02:44:34;;;;;;;10.18;2.38;;;22.30;96.70;;;;;;4907201;29;20135;-69
2021/08/06 02:47:03;;;;;;;10.63;2.65;;;22.30;96.70;;;;;;4913433;29;20088;-69
2021/08/06 02:49:33;;;;;;;7.32;2.33;;;22.30;96.70;;;;;;4921637;28;20040;-70
2021/08/06 02:52:04;;;;;;;9.13;2.47;;;22.20;96.70;;;;;;4910075;29;20052;-70
2021/08/06 02:54:35;;;;;;;6.07;2.10;;;22.10;96.70;;;;;;4904366;29;20048;-69
2021/08/06 02:57:06;;;;;;;9.50;2.20;;;22.10;96.70;;;;;;4908507;29;20044;-70
2021/08/06 02:59:38;;;;;;;10.68;2.05;;;22.20;96.70;;;;;;4916128;28;20621;-69
2021/08/06 03:02:08;;;;;;;9.13;2.28;;;22.30;96.70;;;;;;4939553;28;20119;-69
2021/08/06 03:04:39;;;;;;;7.50;1.90;;;22.30;96.70;;;;;;4906123;29;20135;-69
2021/08/06 03:07:11;;;;;;;6.05;2.05;;;22.30;96.70;;;;;;4892618;29;20051;-70
2021/08/06 03:09:40;;;;;;;8.63;2.53;;;22.30;96.70;;;;;;4905043;29;20056;-69
2021/08/06 03:12:10;;;;;;;8.52;2.33;;;22.20;96.70;;;;;;4907287;29;20402;-69
2021/08/06 03:14:42;;;;;;;9.10;2.28;;;22.30;96.70;;;;;;4906180;29;20054;-69
2021/08/06 03:17:13;;;;;;;6.70;2.13;;;22.30;96.70;;;;;;4907919;29;20111;-69
2021/08/06 03:19:45;;;;;;;7.28;2.33;;;22.30;96.70;;;;;;4907076;29;20140;-69
2021/08/06 03:22:22;;;;;;;7.80;2.53;;;22.30;96.70;;;;;;4905521;29;20044;-69
2021/08/06 03:24:51;;;;;;;8.10;2.17;;;22.30;96.70;;;;;;4905048;29;20036;-70
2021/08/06 03:27:22;;;;;;;7.15;2.25;;;22.30;96.70;;;;;;4908565;29;20059;-70
2021/08/06 03:29:54;;;;;;;8.60;2.60;;;22.30;96.70;;;;;;4903613;29;20044;-69
2021/08/06 03:32:23;;;;;;;10.07;2.50;;;22.30;96.70;;;;;;4939780;28;20056;-70
2021/08/06 03:34:52;;;;;;;7.30;2.53;;;22.20;96.70;;;;;;4938330;28;20051;-69
2021/08/06 03:37:20;;;;;;;10.20;2.20;;;22.20;96.70;;;;;;4905254;29;20552;-70
2021/08/06 03:39:51;;;;;;;7.05;2.35;;;22.20;96.70;;;;;;4917784;29;20049;-70
2021/08/06 03:42:21;;;;;;;7.55;2.63;;;22.30;96.70;;;;;;4903356;29;20059;-70
2021/08/06 03:44:51;;;;;;;7.13;2.30;;;22.30;96.70;;;;;;4903485;29;20059;-69
2021/08/06 03:47:22;;;;;;;7.97;2.35;;;22.30;96.70;;;;;;4921507;28;20052;-70
2021/08/06 03:49:51;;;;;;;7.32;2.25;;;22.30;96.70;;;;;;4922141;29;20055;-69
2021/08/06 03:52:20;;;;;;;12.20;2.45;;;22.30;96.70;;;;;;4905003;29;20044;-70
2021/08/06 03:54:49;;;;;;;7.63;2.63;;;22.30;96.70;;;;;;4918751;29;20044;-70
2021/08/06 03:57:18;;;;;;;6.90;2.22;;;22.20;96.70;;;;;;4905218;29;20443;-69
2021/08/06 03:59:47;;;;;;;9.68;2.45;;;22.30;96.70;;;;;;4938506;28;20052;-70
2021/08/06 04:02:16;;;;;;;6.60;2.20;;;22.30;96.70;;;;;;4903772;29;20044;-70
2021/08/06 04:04:47;;;;;;;10.02;2.60;;;22.30;96.70;;;;;;4906100;29;20507;-69
2021/08/06 04:07:16;;;;;;;17.40;7.40;;;22.30;96.70;;;;;;4905295;29;20100;-70
2021/08/06 04:09:46;;;;;;;43.78;21.08;;;22.30;96.70;;;;;;4905955;29;20052;-69
2021/08/06 04:12:15;;;;;;;58.25;28.35;;;22.30;96.70;;;;;;4901370;29;20149;-69
2021/08/06 04:14:44;;;;;;;29.58;15.23;;;22.20;96.70;;;;;;4890891;29;20059;-70
2021/08/06 04:20:52;;;;;;;11.77;5.30;;;22.20;96.70;;;;;;4911335;29;20052;-69
2021/08/06 04:24:16;;;;;;;11.88;4.47;;;22.10;96.70;;;;;;4921876;29;20133;-69
2021/08/06 04:31:00;;;;;;;7.80;2.63;;;22.10;96.70;;;;;;4898858;29;20047;-70
2021/08/06 04:34:44;;;;;;;7.88;2.08;;;22.10;96.70;;;;;;4834749;29;20068;-69
2021/08/06 04:45:14;;;;;;;8.70;2.00;;;22.20;96.70;;;;;;4825903;29;20093;-70
2021/08/06 04:51:50;;;;;;;10.32;2.70;;;22.20;96.70;;;;;;4818005;29;20500;-69
2021/08/06 05:02:38;;;;;;;9.20;2.63;;;22.20;96.70;;;;;;4837994;29;20057;-69
2021/08/06 05:05:07;;;;;;;11.00;2.67;;;22.20;96.70;;;;;;4832911;29;20583;-69
2021/08/06 05:07:36;;;;;;;8.30;2.35;;;22.20;96.70;;;;;;4832412;29;20077;-69
2021/08/06 05:10:05;;;;;;;10.35;1.90;;;22.20;96.70;;;;;;4837887;29;20085;-69
2021/08/06 05:12:34;;;;;;;9.38;2.17;;;22.20;96.70;;;;;;4941252;28;20048;-69
2021/08/06 05:15:03;;;;;;;7.82;2.47;;;22.30;96.70;;;;;;4908139;29;20063;-69
2021/08/06 05:17:31;;;;;;;8.98;2.50;;;22.40;96.70;;;;;;4923839;29;20056;-69
2021/08/06 05:20:01;;;;;;;8.60;2.60;;;22.30;96.70;;;;;;4908897;29;20048;-69
2021/08/06 05:22:29;;;;;;;6.53;2.05;;;22.40;96.70;;;;;;4910268;29;20051;-70
2021/08/06 05:24:57;;;;;;;9.80;2.65;;;22.40;96.70;;;;;;4920805;28;20567;-69
2021/08/06 05:27:26;;;;;;;10.85;2.25;;;22.40;96.70;;;;;;4909035;29;20051;-69
2021/08/06 05:29:54;;;;;;;10.27;1.85;;;22.40;96.70;;;;;;4898350;29;20529;-70
2021/08/06 05:32:23;;;;;;;8.05;2.67;;;22.40;96.70;;;;;;4937310;28;20063;-69
2021/08/06 05:34:51;;;;;;;7.63;2.17;;;22.50;96.70;;;;;;4940401;28;20055;-70
2021/08/06 05:37:21;;;;;;;9.48;2.78;;;22.50;96.70;;;;;;4892154;29;20047;-69
2021/08/06 05:39:49;;;;;;;8.05;2.38;;;22.50;96.70;;;;;;4921267;29;20047;-69
2021/08/06 05:42:19;;;;;;;8.90;3.15;;;22.60;96.70;;;;;;4907647;29;20143;-69
2021/08/06 05:44:47;;;;;;;8.77;2.90;;;22.70;96.70;;;;;;4923310;29;20041;-69
2021/08/06 05:47:16;;;;;;;9.32;2.22;;;22.70;96.70;;;;;;4908711;29;20127;-69
2021/08/06 05:49:44;;;;;;;7.20;2.85;;;22.70;96.70;;;;;;4939698;28;20095;-69
2021/08/06 05:52:12;;;;;;;6.60;1.95;;;22.70;96.70;;;;;;4907603;29;20056;-69
2021/08/06 05:54:43;;;;;;;9.13;2.83;;;22.70;96.70;;;;;;4941002;28;20083;-69
2021/08/06 05:57:11;;;;;;;6.68;2.42;;;22.70;96.70;;;;;;4907739;29;20052;-70
2021/08/06 05:59:40;;;;;;;6.45;2.55;;;22.70;96.70;;;;;;4910177;29;20052;-69
2021/08/06 06:02:09;;;;;;;9.13;2.60;;;22.80;96.70;;;;;;4906603;29;20471;-69
2021/08/06 06:04:53;;;;;;;8.13;3.13;;;22.80;96.70;;;;;;4908685;29;20145;-70
2021/08/06 06:07:21;;;;;;;5.80;3.03;;;22.80;96.70;;;;;;4920765;28;20056;-69
2021/08/06 06:09:51;;;;;;;11.27;3.35;;;22.90;96.70;;;;;;4924458;28;20055;-69
2021/08/06 06:12:19;;;;;;;11.57;3.20;;;22.90;96.70;;;;;;4918028;28;20083;-70
2021/08/06 06:14:47;;;;;;;9.60;3.65;;;22.80;96.70;;;;;;4922630;29;20048;-70
2021/08/06 06:17:16;;;;;;;8.40;3.13;;;23.00;96.70;;;;;;4907210;29;20134;-69
2021/08/06 06:19:46;;;;;;;8.38;3.30;;;23.00;96.70;;;;;;4924130;28;20504;-69
2021/08/06 06:22:14;;;;;;;9.50;3.28;;;23.10;96.70;;;;;;4919210;29;20041;-70
2021/08/06 06:24:42;;;;;;;12.48;3.58;;;23.20;96.70;;;;;;4908713;29;20055;-69
2021/08/06 06:27:12;;;;;;;11.52;3.10;;;23.20;96.70;;;;;;4920302;28;20509;-70
2021/08/06 06:29:41;;;;;;;8.50;3.38;;;23.30;96.70;;;;;;4923045;28;20048;-69
2021/08/06 06:32:09;;;;;;;9.85;3.53;;;23.40;96.70;;;;;;4915730;28;20575;-69
2021/08/06 06:34:38;;;;;;;15.82;3.58;;;23.40;96.70;;;;;;4920738;29;20045;-69
2021/08/06 06:37:06;;;;;;;11.93;3.47;;;23.60;96.70;;;;;;4908065;29;20634;-69
2021/08/06 06:39:35;;;;;;;7.93;3.45;;;23.70;96.70;;;;;;4920684;29;20048;-69
2021/08/06 06:42:05;;;;;;;10.32;3.17;;;23.90;96.70;;;;;;4939153;28;20044;-69
2021/08/06 06:44:38;;;;;;;9.90;3.50;;;23.90;96.70;;;;;;4921049;28;20053;-70
2021/08/06 06:47:07;;;;;;;10.93;3.55;;;23.90;96.70;;;;;;4920522;29;20139;-70
2021/08/06 06:49:37;;;;;;;11.52;4.03;;;24.00;96.70;;;;;;4906884;29;20621;-69
2021/08/06 06:52:06;;;;;;;12.82;3.70;;;23.90;96.70;;;;;;4935129;28;20074;-70
2021/08/06 06:54:34;;;;;;;11.60;3.42;;;24.00;96.70;;;;;;4938824;29;20044;-70
2021/08/06 06:57:03;;;;;;;7.53;2.90;;;24.00;96.70;;;;;;4923448;28;20146;-69
2021/08/06 06:59:32;;;;;;;11.00;3.75;;;24.20;96.70;;;;;;4920477;29;20140;-69
2021/08/06 07:02:02;;;;;;;9.95;3.22;;;24.30;96.70;;;;;;4921736;28;20186;-69
2021/08/06 07:04:30;;;;;;;6.93;2.63;;;24.40;96.70;;;;;;4918232;29;20048;-69
2021/08/06 07:06:59;;;;;;;8.57;2.70;;;24.40;96.70;;;;;;4907558;29;20059;-72
2021/08/06 07:09:27;;;;;;;8.43;3.15;;;24.50;96.70;;;;;;4905640;29;20054;-72
2021/08/06 07:11:55;;;;;;;8.43;2.63;;;24.50;96.70;;;;;;4906660;29;20060;-70
2021/08/06 07:14:24;;;;;;;6.03;2.42;;;24.60;96.70;;;;;;4918728;28;20045;-70
2021/08/06 07:16:53;;;;;;;9.70;2.97;;;24.70;96.70;;;;;;4922643;29;20112;-71
2021/08/06 07:19:23;;;;;;;9.07;2.40;;;24.80;96.70;;;;;;4922452;28;20142;-71
2021/08/06 07:21:52;;;;;;;9.93;2.45;;;24.70;96.70;;;;;;4906787;29;20052;-72
2021/08/06 07:24:20;;;;;;;9.68;2.60;;;24.80;96.70;;;;;;4907049;29;20107;-72
2021/08/06 07:26:49;;;;;;;4.65;2.10;;;24.80;96.70;;;;;;4906664;29;20056;-71
2021/08/06 07:29:17;;;;;;;10.45;2.78;;;24.90;96.70;;;;;;4905796;29;20056;-71
2021/08/06 07:31:45;;;;;;;7.22;2.20;;;25.00;96.70;;;;;;4908779;29;20574;-71
2021/08/06 07:34:13;;;;;;;10.00;2.95;;;25.10;96.70;;;;;;4936173;28;20458;-69
2021/08/06 07:36:43;;;;;;;10.05;2.83;;;25.20;96.70;;;;;;4918969;29;20518;-71
2021/08/06 07:39:11;;;;;;;12.20;2.83;;;25.10;96.70;;;;;;4931471;28;20299;-72
2021/08/06 07:41:40;;;;;;;10.23;2.60;;;25.10;96.70;;;;;;4906904;29;20048;-71
2021/08/06 07:44:08;;;;;;;8.15;2.92;;;25.20;96.70;;;;;;4897720;29;20048;-71
2021/08/06 07:46:37;;;;;;;8.35;2.65;;;25.10;96.70;;;;;;4906324;29;20083;-70
2021/08/06 07:49:05;;;;;;;9.35;3.17;;;25.00;96.70;;;;;;4904442;29;20506;-71
2021/08/06 07:51:36;;;;;;;14.70;3.15;;;25.00;96.70;;;;;;4938329;28;20095;-71
2021/08/06 07:54:06;;;;;;;9.05;2.95;;;25.00;96.70;;;;;;4887767;29;20080;-73
2021/08/06 07:56:34;;;;;;;12.00;2.75;;;25.00;96.70;;;;;;4909700;29;20396;-71
2021/08/06 07:59:02;;;;;;;11.63;3.10;;;25.10;96.70;;;;;;4935825;28;20100;-69
2021/08/06 08:01:31;;;;;;;12.40;3.03;;;25.10;96.70;;;;;;4914429;29;20120;-70
2021/08/06 08:03:59;;;;;;;8.43;2.75;;;25.20;96.70;;;;;;4908289;29;20036;-70
2021/08/06 08:06:27;;;;;;;7.45;2.63;;;25.20;96.70;;;;;;4905109;29;20086;-71
2021/08/06 08:08:57;;;;;;;9.55;2.80;;;25.10;96.70;;;;;;4906600;29;20221;-71
2021/08/06 08:11:27;;;;;;;7.38;2.25;;;25.10;96.70;;;;;;4941774;28;20511;-70
2021/08/06 08:13:56;;;;;;;8.40;2.38;;;25.10;96.70;;;;;;4913157;28;20104;-71
2021/08/06 08:16:24;;;;;;;11.35;2.65;;;25.00;96.70;;;;;;4900482;29;20043;-73
2021/08/06 08:18:52;;;;;;;6.72;2.30;;;25.00;96.70;;;;;;4905920;29;20059;-72
2021/08/06 08:21:25;;;;;;;7.63;1.90;;;25.00;96.70;;;;;;4890477;29;20040;-73
2021/08/06 08:23:53;;;;;;;11.40;3.40;;;25.10;96.70;;;;;;4937462;28;20175;-73
2021/08/06 08:26:22;;;;;;;13.13;3.22;;;25.20;96.70;;;;;;4905358;29;20543;-73
2021/08/06 08:28:52;;;;;;;7.63;2.28;;;25.30;96.70;;;;;;4906373;29;20317;-73
2021/08/06 08:31:20;;;;;;;6.57;2.08;;;25.30;96.70;;;;;;4903646;29;20288;-72
2021/08/06 08:33:49;;;;;;;7.75;2.42;;;25.40;96.70;;;;;;4891473;29;20361;-73
2021/08/06 08:36:20;;;;;;;6.65;1.90;;;25.60;96.70;;;;;;4904863;29;20048;-71
2021/08/06 08:38:49;;;;;;;9.00;2.25;;;25.70;96.70;;;;;;4937947;28;20059;-71
2021/08/06 08:41:17;;;;;;;6.47;2.45;;;25.80;96.70;;;;;;4903079;29;20415;-72
2021/08/06 08:43:46;;;;;;;10.48;2.50;;;25.70;96.70;;;;;;4934833;28;20049;-71
2021/08/06 08:46:19;;;;;;;9.00;2.38;;;25.60;96.70;;;;;;4902478;29;20040;-71
2021/08/06 08:48:50;;;;;;;7.85;2.35;;;25.50;96.70;;;;;;4921728;28;20048;-71
2021/08/06 08:51:19;;;;;;;10.98;2.63;;;25.40;96.70;;;;;;4904589;29;20517;-71
2021/08/06 08:53:47;;;;;;;6.25;2.05;;;25.40;96.70;;;;;;4899390;29;20487;-69
2021/08/06 08:56:15;;;;;;;6.20;2.22;;;25.50;96.70;;;;;;4903153;29;20048;-70
2021/08/06 08:58:44;;;;;;;8.05;2.20;;;25.50;96.70;;;;;;4905859;29;20056;-71
2021/08/06 09:01:13;;;;;;;3.60;1.80;;;25.60;96.70;;;;;;4888508;29;20147;-70
2021/08/06 09:03:49;;;;;;;6.38;1.75;;;25.80;96.70;;;;;;4910603;29;20566;-70
2021/08/06 09:06:40;;;;;;;6.53;2.15;;;25.80;96.70;;;;;;4915362;29;20064;-70
2021/08/06 09:09:15;;;;;;;5.45;1.95;;;25.80;96.70;;;;;;4922400;28;20499;-70
2021/08/06 09:12:07;;;;;;;10.65;2.60;;;25.70;96.70;;;;;;4919810;29;20158;-69
2021/08/06 09:15:01;;;;;;;6.93;2.13;;;25.70;96.70;;;;;;4902271;29;20052;-68
2021/08/06 09:17:37;;;;;;;9.77;2.75;;;25.60;96.70;;;;;;4906691;29;20052;-68
2021/08/06 09:20:09;;;;;;;8.18;2.53;;;25.60;96.70;;;;;;4899271;29;20080;-69
2021/08/06 09:22:41;;;;;;;6.75;1.95;;;25.50;96.70;;;;;;4906971;29;20051;-69
2021/08/06 09:25:12;;;;;;;10.48;2.33;;;25.50;96.70;;;;;;4906550;29;20074;-69
2021/08/06 09:27:47;;;;;;;9.20;2.35;;;25.40;96.70;;;;;;4903774;29;20044;-68
2021/08/06 09:30:32;;;;;;;11.98;2.88;;;25.50;96.70;;;;;;4903394;29;20051;-68
2021/08/06 09:33:01;;;;;;;10.82;2.50;;;25.60;96.70;;;;;;4906767;29;20455;-68
2021/08/06 09:35:32;;;;;;;11.20;2.78;;;25.70;96.70;;;;;;4906397;29;20173;-68
2021/08/06 09:38:01;;;;;;;6.25;1.90;;;25.80;96.70;;;;;;4907457;29;20048;-69
2021/08/06 09:40:32;;;;;;;6.22;1.65;;;25.80;96.70;;;;;;4906126;29;20043;-69
2021/08/06 09:43:01;;;;;;;6.72;1.55;;;25.90;96.70;;;;;;4908011;29;20068;-70
2021/08/06 09:45:35;;;;;;;9.00;1.80;;;25.90;96.70;;;;;;4921931;29;20049;-70
2021/08/06 09:48:05;;;;;;;6.93;2.00;;;26.10;96.70;;;;;;4908175;29;20068;-70
2021/08/06 09:50:36;;;;;;;8.02;2.10;;;26.30;96.70;;;;;;4907186;29;20052;-69
2021/08/06 09:53:06;;;;;;;6.22;2.35;;;26.50;96.70;;;;;;4908084;29;20063;-70
2021/08/06 09:55:36;;;;;;;7.55;2.28;;;26.40;96.70;;;;;;4909542;29;20106;-70
2021/08/06 09:58:07;;;;;;;5.07;1.85;;;26.30;96.70;;;;;;4906919;29;20446;-70
2021/08/06 10:00:39;;;;;;;7.07;1.70;;;26.20;96.70;;;;;;4910318;29;20048;-70
2021/08/06 10:03:08;;;;;;;8.20;2.13;;;26.20;96.70;;;;;;4904985;29;20040;-69
2021/08/06 10:05:38;;;;;;;6.70;1.92;;;26.40;96.70;;;;;;4909371;29;20066;-70
2021/08/06 10:08:06;;;;;;;4.97;1.80;;;26.40;96.70;;;;;;4908445;29;20040;-69
2021/08/06 10:10:36;;;;;;;5.75;1.98;;;26.50;96.70;;;;;;4910156;29;20091;-69
2021/08/06 10:13:05;;;;;;;6.72;1.90;;;26.60;96.70;;;;;;4915354;29;20063;-70
2021/08/06 10:15:35;;;;;;;8.30;2.20;;;26.70;96.70;;;;;;4922846;28;20071;-70
2021/08/06 10:18:04;;;;;;;8.05;1.90;;;26.70;96.70;;;;;;4906712;29;20058;-70
2021/08/06 10:20:33;;;;;;;5.60;1.70;;;26.70;96.70;;;;;;4909468;29;20510;-70
2021/08/06 10:23:03;;;;;;;6.22;2.05;;;26.70;96.70;;;;;;4905356;29;20044;-70
2021/08/06 10:25:31;;;;;;;5.25;1.63;;;26.70;96.70;;;;;;4909102;29;20048;-70
2021/08/06 10:28:02;;;;;;;8.63;1.92;;;26.70;96.70;;;;;;4908989;29;20040;-70
2021/08/06 10:30:33;;;;;;;7.95;1.73;;;26.70;96.70;;;;;;4906907;29;20063;-70
2021/08/06 10:33:09;;;;;;;6.30;1.63;;;26.50;96.70;;;;;;4920971;29;20087;-70
2021/08/06 10:35:45;;;;;;;4.10;1.60;;;26.70;96.70;;;;;;4908858;29;20048;-70
2021/08/06 10:38:15;;;;;;;5.97;1.88;;;26.90;96.70;;;;;;4905402;29;20047;-70
2021/08/06 10:41:02;;;;;;;5.95;1.65;;;27.00;96.70;;;;;;4907294;29;20520;-70
2021/08/06 10:43:39;;;;;;;6.93;1.75;;;27.40;96.70;;;;;;4911938;29;20477;-70
2021/08/06 10:46:09;;;;;;;7.43;2.15;;;27.60;96.70;;;;;;4906401;29;20131;-70
2021/08/06 10:48:40;;;;;;;5.95;1.98;;;27.80;96.70;;;;;;4924564;28;20337;-70
2021/08/06 10:51:32;;;;;;;4.85;2.05;;;27.80;96.70;;;;;;4908254;29;20079;-70
2021/08/06 10:54:26;;;;;;;5.45;1.90;;;27.70;96.70;;;;;;4903943;29;20075;-70
2021/08/06 10:57:20;;;;;;;6.03;1.50;;;27.80;96.70;;;;;;4922565;29;20067;-70
2021/08/06 10:59:49;;;;;;;6.57;1.70;;;27.60;96.70;;;;;;4903890;29;20064;-70
2021/08/06 11:02:53;;;;;;;4.00;1.52;;;27.50;96.70;;;;;;4918717;29;20223;-70
2021/08/06 11:05:39;;;;;;;4.80;1.50;;;27.70;96.70;;;;;;4912082;29;20074;-70
2021/08/06 11:08:53;;;;;;;2.55;1.33;;;28.10;96.70;;;;;;4907026;29;20036;-70
2021/08/06 11:11:56;;;;;;;6.63;1.83;;;28.20;96.70;;;;;;4905234;29;20044;-70
2021/08/06 11:14:56;;;;;;;4.20;1.45;;;28.20;96.70;;;;;;4830620;29;20143;-70
2021/08/06 11:17:33;;;;;;;5.88;1.67;;;28.10;96.70;;;;;;4934490;28;20103;-70
2021/08/06 11:20:10;;;;;;;4.38;1.40;;;27.80;96.70;;;;;;4906683;29;20051;-70
2021/08/06 11:22:40;;;;;;;6.00;1.70;;;27.80;96.70;;;;;;4908553;29;20055;-70
2021/08/06 11:25:16;;;;;;;4.07;1.45;;;27.60;96.70;;;;;;4907204;29;20055;-70
2021/08/06 11:27:51;;;;;;;4.88;1.80;;;27.60;96.70;;;;;;4906154;29;20052;-70
2021/08/06 11:30:24;;;;;;;8.80;2.03;;;27.70;96.70;;;;;;4937131;29;20091;-70
2021/08/06 11:32:54;;;;;;;5.60;1.50;;;27.70;96.70;;;;;;4908304;29;20060;-70
2021/08/06 11:35:24;;;;;;;5.55;1.60;;;27.90;96.70;;;;;;4904883;29;20084;-70
2021/08/06 11:37:55;;;;;;;5.97;1.70;;;27.90;96.70;;;;;;4891410;29;21015;-70
2021/08/06 11:40:24;;;;;;;4.72;2.05;;;28.00;96.70;;;;;;4908907;29;20315;-70
2021/08/06 11:42:54;;;;;;;5.80;1.80;;;28.30;96.70;;;;;;4922004;28;20230;-70
2021/08/06 11:45:24;;;;;;;6.90;2.00;;;28.60;96.00;;;;;;4907728;29;20104;-70
2021/08/06 11:47:59;;;;;;;5.53;1.80;;;28.90;96.70;;;;;;4889186;29;20067;-70
2021/08/06 11:50:41;;;;;;;4.90;1.88;;;28.90;96.70;;;;;;4919590;29;20283;-70
2021/08/06 11:53:14;;;;;;;5.07;1.95;;;28.70;96.70;;;;;;4903107;29;20048;-70
2021/08/06 11:55:43;;;;;;;4.25;1.70;;;28.70;96.70;;;;;;4936390;28;20048;-70
2021/08/06 11:58:13;;;;;;;4.82;1.40;;;28.60;96.70;;;;;;4889795;29;20143;-70
2021/08/06 12:00:43;;;;;;;6.00;1.88;;;28.40;96.70;;;;;;4905827;29;20067;-70
2021/08/06 12:03:14;;;;;;;4.68;1.73;;;28.30;96.70;;;;;;4889108;29;20155;-70
2021/08/06 12:05:44;;;;;;;4.72;1.63;;;28.20;96.70;;;;;;4908855;29;20215;-70
2021/08/06 12:08:19;;;;;;;5.00;1.55;;;28.10;96.70;;;;;;4903969;29;20135;-70
2021/08/06 12:10:49;;;;;;;4.60;1.70;;;28.10;96.70;;;;;;4909835;29;20076;-70
2021/08/06 12:13:21;;;;;;;6.22;1.77;;;28.50;96.70;;;;;;4906411;29;20054;-70
2021/08/06 12:16:00;;;;;;;5.22;1.67;;;28.90;96.60;;;;;;4907623;29;20055;-70
2021/08/06 12:18:30;;;;;;;7.22;1.90;;;29.30;95.30;;;;;;4906728;29;20047;-70
2021/08/06 12:20:59;;;;;;;5.03;1.45;;;29.20;95.40;;;;;;4906404;29;20418;-70
2021/08/06 12:23:28;;;;;;;8.10;1.88;;;28.70;95.70;;;;;;4920349;29;20044;-70
2021/08/06 12:26:08;;;;;;;3.13;1.40;;;28.40;96.00;;;;;;4907741;29;20108;-70
2021/08/06 12:28:39;;;;;;;4.60;1.55;;;28.50;95.80;;;;;;4902734;29;20040;-70
2021/08/06 12:31:16;;;;;;;5.20;1.50;;;28.30;96.70;;;;;;4906091;29;20044;-70
2021/08/06 12:33:47;;;;;;;4.00;1.70;;;28.30;96.70;;;;;;4886747;29;20055;-70
2021/08/06 12:36:19;;;;;;;5.20;1.48;;;28.70;96.70;;;;;;4904833;29;20057;-70
2021/08/06 12:38:50;;;;;;;4.47;1.58;;;28.80;96.70;;;;;;4921665;28;20064;-70
2021/08/06 12:41:26;;;;;;;5.60;2.17;;;28.50;96.70;;;;;;4919055;28;20127;-70
2021/08/06 12:44:24;;;;;;;4.18;2.00;;;28.30;96.70;;;;;;4907583;29;20099;-70
2021/08/06 12:47:17;;;;;;;7.25;1.80;;;28.60;96.70;;;;;;4860431;29;20504;-70
2021/08/06 12:49:54;;;;;;;6.20;2.28;;;29.10;96.00;;;;;;4932566;28;20118;-70
2021/08/06 12:52:23;;;;;;;3.72;1.27;;;29.50;95.60;;;;;;4905294;29;20056;-70
2021/08/06 12:55:13;;;;;;;3.13;1.27;;;29.70;92.10;;;;;;4907601;29;20107;-70
2021/08/06 12:57:47;;;;;;;2.70;1.30;;;29.80;92.20;;;;;;4904739;29;20064;-70
2021/08/06 13:00:21;;;;;;;5.10;1.70;;;29.80;91.60;;;;;;4905916;29;20045;-70
2021/08/06 13:03:01;;;;;;;3.85;1.38;;;29.40;92.00;;;;;;4909998;29;20154;-70
2021/08/06 13:05:32;;;;;;;8.05;1.85;;;29.20;92.70;;;;;;4906943;29;20044;-70
2021/08/06 13:08:12;;;;;;;6.30;1.70;;;29.20;92.70;;;;;;4908660;29;20056;-70
2021/08/06 13:10:41;;;;;;;3.83;1.48;;;29.10;93.30;;;;;;4902370;29;20594;-70
2021/08/06 13:13:12;;;;;;;5.25;1.83;;;29.20;93.30;;;;;;4906213;29;20041;-70
2021/08/06 13:15:42;;;;;;;4.35;1.70;;;29.20;93.40;;;;;;4907185;29;20511;-70
2021/08/06 13:18:11;;;;;;;6.28;1.40;;;29.20;93.50;;;;;;4917171;29;20052;-70
2021/08/06 13:20:42;;;;;;;3.63;1.38;;;29.40;93.00;;;;;;4906416;29;20056;-70
2021/08/06 13:23:12;;;;;;;4.97;1.70;;;29.70;92.80;;;;;;4912106;29;20487;-70
2021/08/06 13:25:40;;;;;;;4.22;1.90;;;29.60;92.80;;;;;;4908634;29;20056;-70
2021/08/06 13:28:10;;;;;;;7.00;1.95;;;29.60;93.10;;;;;;4911704;29;20139;-70
2021/08/06 13:30:39;;;;;;;3.60;1.42;;;29.70;93.40;;;;;;4908642;29;20503;-70
2021/08/06 13:33:10;;;;;;;8.38;1.75;;;29.60;93.20;;;;;;4909864;29;20050;-70
2021/08/06 13:35:39;;;;;;;4.82;1.70;;;29.20;94.50;;;;;;4909861;29;20102;-70
2021/08/06 13:38:08;;;;;;;4.55;1.67;;;29.40;94.30;;;;;;4909750;29;20398;-70
2021/08/06 13:40:37;;;;;;;4.22;1.55;;;29.90;93.10;;;;;;4908476;29;20485;-70
2021/08/06 13:43:09;;;;;;;4.88;1.52;;;30.10;92.70;;;;;;4907713;29;20040;-70
2021/08/06 13:45:38;;;;;;;4.15;1.60;;;30.10;92.40;;;;;;4941387;28;20059;-70
2021/08/06 13:48:08;;;;;;;4.78;1.70;;;30.00;92.60;;;;;;4908819;29;20296;-70